Time;durP1;ratioP1;P1;durP2;ratioP2;P2;SDS_P1;SDS_P2;PMS_P1;PMS_P2;Temp;Humidity;BMP_temperature;BMP_pressure;BME280_temperature;BME280_humidity;BME280_pressure;Samples;Min_cycle;Max_cycle;Signal;HPM_P1;HPM_P2
2023/04/29 00:00:12;;;;;;;;;9.50;9.50;;;;;12.70;74.08;99484.78;5119949;28;8840;-86
2023/04/29 00:02:40;;;;;;;;;17.50;15.50;;;;;12.68;74.36;99492.13;5120607;28;8886;-86
2023/04/29 00:05:09;;;;;;;;;12.00;9.50;;;;;12.65;74.43;99493.25;5122363;28;8848;-86
2023/04/29 00:07:37;;;;;;;;;7.50;6.25;;;;;12.64;74.55;99494.25;5123118;28;8820;-87
2023/04/29 00:10:05;;;;;;;;;14.00;12.75;;;;;12.63;74.80;99494.38;5122256;28;8855;-86
2023/04/29 00:12:33;;;;;;;;;14.00;13.50;;;;;12.61;74.51;99496.34;5120218;28;9538;-87
2023/04/29 00:15:01;;;;;;;;;9.25;9.25;;;;;12.58;74.28;99497.47;5120292;28;8851;-86
2023/04/29 00:17:29;;;;;;;;;14.25;12.50;;;;;12.55;74.89;99492.41;5119104;28;8835;-86
2023/04/29 00:19:57;;;;;;;;;14.00;13.00;;;;;12.53;74.76;99502.41;5119208;28;8954;-87
2023/04/29 00:22:25;;;;;;;;;11.25;11.25;;;;;12.46;74.34;99501.31;5118414;28;8851;-87
2023/04/29 00:24:53;;;;;;;;;15.00;15.00;;;;;12.43;74.51;99503.41;5119088;28;8828;-87
2023/04/29 00:27:20;;;;;;;;;10.25;9.25;;;;;12.37;74.66;99509.34;5118904;28;8840;-86
2023/04/29 00:29:48;;;;;;;;;18.75;15.00;;;;;12.35;74.86;99512.16;5118827;28;8855;-86
2023/04/29 00:32:16;;;;;;;;;12.25;9.75;;;;;12.33;75.11;99513.28;5118686;28;8846;-87
2023/04/29 00:34:44;;;;;;;;;15.50;14.00;;;;;12.31;74.55;99513.44;5118544;28;8874;-86
2023/04/29 00:37:11;;;;;;;;;19.25;14.50;;;;;12.30;74.79;99510.91;5118909;28;9646;-86
2023/04/29 00:39:39;;;;;;;;;14.50;13.00;;;;;12.29;74.54;99522.56;5118482;28;8852;-87
2023/04/29 00:42:07;;;;;;;;;14.75;12.25;;;;;12.28;74.61;99516.41;5118803;28;8844;-86
2023/04/29 00:44:35;;;;;;;;;20.75;17.50;;;;;12.27;74.87;99520.06;5118540;28;9553;-87
2023/04/29 00:47:03;;;;;;;;;18.00;16.00;;;;;12.27;74.68;99522.72;5118461;28;8867;-86
2023/04/29 00:49:31;;;;;;;;;18.75;17.50;;;;;12.26;74.76;99525.53;5118601;28;8819;-87
2023/04/29 00:51:59;;;;;;;;;16.75;14.75;;;;;12.26;75.25;99528.19;5118313;28;8917;-87
2023/04/29 00:54:27;;;;;;;;;15.75;13.50;;;;;12.25;74.50;99529.19;5118916;28;8843;-86
2023/04/29 00:56:55;;;;;;;;;22.50;17.50;;;;;12.25;74.34;99531.84;5118835;28;8862;-86
2023/04/29 00:59:30;;;;;;;;;14.00;13.25;;;;;12.25;74.96;99535.34;5118408;28;8844;-87
2023/04/29 01:01:58;;;;;;;;;14.25;13.75;;;;;12.24;74.70;99540.84;5118921;28;8828;-86
2023/04/29 01:04:26;;;;;;;;;21.00;19.00;;;;;12.22;74.54;99538.31;5118163;28;8893;-86
2023/04/29 01:06:55;;;;;;;;;21.75;16.00;;;;;12.21;74.63;99541.13;5118953;28;8844;-87
2023/04/29 01:09:23;;;;;;;;;10.50;9.50;;;;;12.20;74.94;99542.97;5118414;28;8836;-87
2023/04/29 01:11:51;;;;;;;;;18.75;17.75;;;;;12.21;74.89;99546.47;5117929;28;8866;-86
2023/04/29 01:14:19;;;;;;;;;20.00;17.50;;;;;12.21;74.85;99554.47;5118393;28;9485;-87
2023/04/29 01:16:47;;;;;;;;;21.00;18.75;;;;;12.20;74.71;99556.31;5118282;28;8847;-86
2023/04/29 01:19:15;;;;;;;;;17.75;16.50;;;;;12.19;74.88;99557.28;5118434;28;8843;-87
2023/04/29 01:21:43;;;;;;;;;18.50;16.50;;;;;12.18;74.89;99557.44;5118023;28;8832;-87
2023/04/29 01:24:10;;;;;;;;;17.50;16.75;;;;;12.17;74.05;99558.41;5117862;28;8900;-87
2023/04/29 01:26:38;;;;;;;;;18.75;17.50;;;;;12.17;74.88;99567.25;5117974;28;8824;-87
2023/04/29 01:29:06;;;;;;;;;14.25;13.25;;;;;12.14;75.05;99564.03;5117626;28;8816;-87
2023/04/29 01:31:33;;;;;;;;;22.50;20.00;;;;;12.14;74.40;99567.53;5118104;28;8867;-87
2023/04/29 01:34:01;;;;;;;;;16.75;16.75;;;;;12.11;74.70;99562.50;5117012;28;8852;-87
2023/04/29 01:36:30;;;;;;;;;20.00;16.00;;;;;12.09;74.75;99568.97;5117615;28;8860;-87
2023/04/29 01:38:58;;;;;;;;;22.50;19.75;;;;;12.07;74.58;99573.59;5117431;28;8831;-87
2023/04/29 01:41:25;;;;;;;;;21.25;18.25;;;;;12.05;74.62;99579.06;5117684;28;9530;-87
2023/04/29 01:43:54;;;;;;;;;19.75;15.50;;;;;12.03;74.88;99569.50;5117691;28;8824;-87
2023/04/29 01:46:21;;;;;;;;;22.00;19.25;;;;;12.02;74.96;99574.00;5117644;28;8850;-87
2023/04/29 01:48:49;;;;;;;;;20.25;13.75;;;;;12.02;75.18;99579.34;5117556;28;8920;-87
2023/04/29 01:51:16;;;;;;;;;19.50;18.75;;;;;12.04;75.17;99573.88;5117042;28;8831;-87
2023/04/29 01:53:44;;;;;;;;;27.75;24.00;;;;;12.02;75.10;99574.00;5117177;28;8832;-87
2023/04/29 01:56:12;;;;;;;;;21.00;18.25;;;;;12.01;74.79;99574.16;5117238;28;8880;-87
2023/04/29 01:58:40;;;;;;;;;28.75;22.25;;;;;11.99;74.89;99576.97;5117192;28;9518;-86
2023/04/29 02:01:09;;;;;;;;;10.25;8.75;;;;;11.98;75.33;99575.28;5117345;28;8828;-86
2023/04/29 02:03:55;;;;;;;;;18.25;16.50;;;;;12.00;74.72;99580.47;5116790;28;8840;-86
2023/04/29 02:06:23;;;;;;;;;19.00;18.00;;;;;11.98;75.02;99580.63;5117069;28;8904;-86
2023/04/29 02:08:51;;;;;;;;;23.25;20.75;;;;;11.99;74.55;99587.63;5117165;28;8916;-86
2023/04/29 02:11:18;;;;;;;;;20.75;19.50;;;;;11.96;74.54;99589.72;5117055;28;8828;-86
2023/04/29 02:13:46;;;;;;;;;15.00;12.00;;;;;11.93;75.35;99587.34;5117078;28;8892;-86
2023/04/29 02:16:13;;;;;;;;;18.00;15.00;;;;;11.89;75.25;99591.28;5116926;28;8843;-85
2023/04/29 02:18:42;;;;;;;;;17.50;16.00;;;;;11.86;74.53;99594.22;5116867;28;8904;-85
2023/04/29 02:21:11;;;;;;;;;19.00;15.00;;;;;11.82;75.36;99590.13;5116827;28;8824;-86
2023/04/29 02:23:38;;;;;;;;;18.50;15.75;;;;;11.80;75.06;99600.13;5116543;28;8851;-86
2023/04/29 02:26:08;;;;;;;;;13.25;9.00;;;;;11.75;75.14;99602.34;5116756;28;8896;-86
2023/04/29 02:28:35;;;;;;;;;20.50;17.75;;;;;11.72;74.93;99607.97;5116921;28;9582;-85
2023/04/29 02:31:03;;;;;;;;;16.50;14.50;;;;;11.68;75.38;99611.88;5116670;28;8844;-86
2023/04/29 02:33:31;;;;;;;;;27.00;21.25;;;;;11.66;75.45;99612.97;5116538;28;8843;-86
2023/04/29 02:35:59;;;;;;;;;4.00;4.00;;;;;11.62;75.68;99612.44;5116294;28;8932;-86
2023/04/29 02:38:27;;;;;;;;;19.75;18.75;;;;;11.61;75.49;99615.22;5116935;28;8836;-86
2023/04/29 02:40:55;;;;;;;;;22.75;19.50;;;;;11.58;75.19;99619.00;5116718;28;8832;-86
2023/04/29 02:43:23;;;;;;;;;11.00;7.00;;;;;11.54;75.47;99617.56;5116875;28;8874;-86
2023/04/29 02:45:50;;;;;;;;;13.00;12.25;;;;;11.51;75.30;99615.16;5116358;28;8889;-86
2023/04/29 02:48:18;;;;;;;;;22.25;21.50;;;;;11.49;75.07;99622.47;5116630;28;8831;-86
2023/04/29 02:50:46;;;;;;;;;23.25;20.00;;;;;11.49;75.61;99629.59;5116314;28;8908;-86
2023/04/29 02:53:14;;;;;;;;;23.00;18.00;;;;;11.48;75.72;99631.44;5116671;28;8828;-86
2023/04/29 02:55:42;;;;;;;;;20.00;17.50;;;;;11.45;75.20;99639.69;5116652;28;8860;-86
2023/04/29 02:58:09;;;;;;;;;29.00;26.75;;;;;11.41;75.32;99629.44;5116550;28;8835;-86
2023/04/29 03:00:37;;;;;;;;;25.00;23.00;;;;;11.37;76.01;99636.03;5116456;28;8832;-85
2023/04/29 03:03:05;;;;;;;;;17.00;16.75;;;;;11.32;75.44;99636.44;5115633;28;8832;-86
2023/04/29 03:05:33;;;;;;;;;21.25;20.00;;;;;11.30;75.91;99646.38;5115413;28;8860;-86
2023/04/29 03:08:03;;;;;;;;;25.75;22.00;;;;;11.27;75.98;99648.47;5116221;28;8816;-86
2023/04/29 03:10:31;;;;;;;;;21.25;20.50;;;;;11.23;75.56;99645.22;5115844;28;8842;-86
2023/04/29 03:12:58;;;;;;;;;18.75;18.75;;;;;11.18;75.84;99650.13;5116721;28;8832;-86
2023/04/29 03:15:26;;;;;;;;;27.50;26.50;;;;;11.14;75.68;99648.69;5116820;28;8820;-86
2023/04/29 03:17:54;;;;;;;;;20.75;15.50;;;;;11.10;76.09;99652.63;5116483;28;8835;-86
2023/04/29 03:20:23;;;;;;;;;18.25;14.50;;;;;11.07;76.23;99658.19;5115897;28;8870;-85
2023/04/29 03:22:51;;;;;;;;;29.00;25.25;;;;;11.04;75.60;99652.28;5117015;28;8844;-86
2023/04/29 03:25:18;;;;;;;;;23.50;21.25;;;;;11.03;76.31;99662.09;5116266;28;8897;-86
2023/04/29 03:27:46;;;;;;;;;19.00;15.00;;;;;10.98;75.89;99653.66;5116408;28;8839;-85
2023/04/29 03:30:14;;;;;;;;;24.25;22.50;;;;;10.98;76.66;99658.97;5116453;28;8828;-86
2023/04/29 03:32:42;;;;;;;;;16.00;15.50;;;;;10.99;76.32;99665.16;5115851;28;8827;-86
2023/04/29 03:35:10;;;;;;;;;19.75;18.50;;;;;10.98;75.84;99664.31;5115961;28;8842;-86
2023/04/29 03:37:43;;;;;;;;;12.75;9.00;;;;;10.96;76.22;99658.28;5116678;28;8847;-86
2023/04/29 03:40:11;;;;;;;;;17.25;14.75;;;;;10.95;76.20;99661.91;5116592;28;8828;-86
2023/04/29 03:42:38;;;;;;;;;23.75;21.75;;;;;10.95;75.93;99667.25;5116634;28;8824;-86
2023/04/29 03:45:06;;;;;;;;;16.50;14.75;;;;;10.96;76.20;99671.59;5116587;28;8835;-86
2023/04/29 03:47:34;;;;;;;;;21.50;19.00;;;;;10.96;76.17;99671.59;5116343;28;8970;-86
2023/04/29 03:50:03;;;;;;;;;22.50;18.75;;;;;10.96;76.53;99674.25;5116811;28;8823;-85
2023/04/29 03:52:30;;;;;;;;;13.75;10.75;;;;;10.94;76.44;99676.19;5116537;28;8869;-85
2023/04/29 03:54:58;;;;;;;;;21.75;19.00;;;;;10.93;76.63;99671.00;5116711;28;8812;-85
2023/04/29 03:57:26;;;;;;;;;19.00;17.25;;;;;10.92;76.50;99670.16;5118654;28;8844;-85
2023/04/29 03:59:54;;;;;;;;;19.75;16.75;;;;;10.90;76.26;99673.91;5120104;28;8991;-85
2023/04/29 04:02:22;;;;;;;;;14.25;14.25;;;;;10.88;76.39;99675.88;5119837;28;8858;-85
2023/04/29 04:04:49;;;;;;;;;16.50;14.50;;;;;10.87;76.22;99684.84;5119883;28;8835;-85
2023/04/29 04:07:17;;;;;;;;;19.00;17.50;;;;;10.86;76.22;99686.66;5119523;28;8835;-85
2023/04/29 04:09:46;;;;;;;;;18.00;14.00;;;;;10.84;75.94;99691.28;5119457;28;8855;-85
2023/04/29 04:12:14;;;;;;;;;19.00;17.25;;;;;10.80;76.64;99695.19;5119724;28;8917;-85
2023/04/29 04:14:42;;;;;;;;;12.00;10.00;;;;;10.78;76.48;99701.63;5120293;28;8835;-85
2023/04/29 04:17:10;;;;;;;;;17.25;12.25;;;;;10.77;76.45;99707.91;5120032;28;8870;-85
2023/04/29 04:19:38;;;;;;;;;9.75;9.00;;;;;10.73;75.81;99710.00;5119842;28;8840;-85
2023/04/29 04:22:06;;;;;;;;;14.00;11.00;;;;;10.70;76.23;99707.56;5119220;28;8862;-85
2023/04/29 04:24:34;;;;;;;;;14.00;13.25;;;;;10.69;76.80;99716.53;5120183;28;8925;-85
2023/04/29 04:27:01;;;;;;;;;9.25;9.00;;;;;10.70;76.53;99717.41;5119846;28;8836;-85
2023/04/29 04:29:29;;;;;;;;;12.75;11.50;;;;;10.70;76.17;99712.06;5119629;28;8824;-85
2023/04/29 04:31:57;;;;;;;;;14.75;14.00;;;;;10.67;76.52;99718.50;5119593;28;8843;-85
2023/04/29 04:34:25;;;;;;;;;18.50;17.50;;;;;10.68;76.39;99709.53;5119555;28;8851;-85
2023/04/29 04:36:52;;;;;;;;;9.75;9.00;;;;;10.69;76.46;99713.88;5119519;28;8877;-85
2023/04/29 04:39:20;;;;;;;;;12.00;10.50;;;;;10.71;76.70;99730.56;5119351;28;8840;-85
2023/04/29 04:41:47;;;;;;;;;11.50;10.00;;;;;10.69;76.16;99719.19;5119142;28;8844;-85
2023/04/29 04:44:15;;;;;;;;;22.00;18.25;;;;;10.71;76.30;99727.06;5119498;28;8932;-85
2023/04/29 04:46:43;;;;;;;;;21.75;21.25;;;;;10.70;76.25;99731.53;5119308;28;8836;-85
2023/04/29 04:49:10;;;;;;;;;17.50;14.75;;;;;10.71;76.35;99730.56;5119083;28;8912;-85
2023/04/29 04:51:38;;;;;;;;;14.00;13.00;;;;;10.71;76.21;99732.41;5119758;28;8838;-85
2023/04/29 04:54:06;;;;;;;;;8.00;7.75;;;;;10.71;75.95;99735.06;5119061;28;8851;-85
2023/04/29 04:56:36;;;;;;;;;18.00;16.00;;;;;10.70;75.95;99739.53;5118828;28;8921;-85
2023/04/29 04:59:04;;;;;;;;;14.75;14.00;;;;;10.68;76.34;99741.47;5118427;28;8855;-85
2023/04/29 05:01:31;;;;;;;;;20.25;17.75;;;;;10.68;76.13;99746.81;5118699;28;8843;-85
2023/04/29 05:04:01;;;;;;;;;18.75;16.50;;;;;10.66;76.58;99747.91;5118815;28;8824;-85
2023/04/29 05:06:29;;;;;;;;;17.00;16.50;;;;;10.65;76.49;99764.84;5118111;28;8828;-85
2023/04/29 05:08:56;;;;;;;;;17.00;11.75;;;;;10.63;76.71;99753.50;5117291;28;8901;-85
2023/04/29 05:11:24;;;;;;;;;16.75;13.25;;;;;10.63;76.73;99748.16;5118695;28;8851;-85
2023/04/29 05:13:52;;;;;;;;;13.00;11.00;;;;;10.61;76.41;99750.94;5118959;28;8832;-85
2023/04/29 05:16:20;;;;;;;;;16.50;15.25;;;;;10.61;76.61;99766.91;5118656;28;8856;-85
2023/04/29 05:18:47;;;;;;;;;6.25;4.00;;;;;10.63;76.14;99764.97;5119682;28;8863;-84
2023/04/29 05:21:15;;;;;;;;;23.00;20.00;;;;;10.64;76.44;99760.50;5118447;28;8871;-84
2023/04/29 05:23:44;;;;;;;;;15.00;15.00;;;;;10.63;76.46;99758.81;5119109;28;8823;-85
2023/04/29 05:26:11;;;;;;;;;18.25;17.00;;;;;10.65;76.59;99764.84;5118453;28;8856;-85
2023/04/29 05:28:39;;;;;;;;;9.00;7.00;;;;;10.66;76.10;99759.41;5118575;28;9572;-85
2023/04/29 05:31:07;;;;;;;;;11.00;9.25;;;;;10.71;76.17;99767.00;5119175;28;8908;-85
2023/04/29 05:33:34;;;;;;;;;12.00;12.00;;;;;10.73;76.16;99770.38;5118169;28;8856;-85
2023/04/29 05:36:03;;;;;;;;;15.75;14.50;;;;;10.75;76.43;99779.94;5118408;28;9489;-85
2023/04/29 05:38:31;;;;;;;;;18.50;14.75;;;;;10.75;75.59;99774.63;5118582;28;8885;-85
2023/04/29 05:40:58;;;;;;;;;14.50;12.00;;;;;10.78;75.77;99781.50;5117875;28;8840;-84
2023/04/29 05:43:26;;;;;;;;;18.25;13.25;;;;;10.78;76.06;99773.53;5118112;28;8836;-85
2023/04/29 05:45:54;;;;;;;;;19.00;16.00;;;;;10.79;76.22;99772.56;5117994;28;8835;-85
2023/04/29 05:48:23;;;;;;;;;13.50;13.50;;;;;10.80;75.75;99792.88;5117094;28;8828;-85
2023/04/29 05:50:51;;;;;;;;;12.50;10.50;;;;;10.82;76.10;99794.44;5117330;28;8836;-86
2023/04/29 05:53:18;;;;;;;;;15.25;10.00;;;;;10.85;75.96;99791.53;5117327;28;8816;-85
2023/04/29 05:55:46;;;;;;;;;14.00;13.50;;;;;10.87;76.20;99794.06;5117091;28;9489;-85
2023/04/29 05:58:16;;;;;;;;;30.25;24.75;;;;;10.89;75.93;99805.44;5116739;28;8965;-85
2023/04/29 06:00:48;;;;;;;;;13.75;11.00;;;;;10.89;75.92;99806.28;5115553;28;8832;-85
2023/04/29 06:03:15;;;;;;;;;21.00;20.25;;;;;10.93;76.19;99809.53;5115762;28;8827;-85
2023/04/29 06:05:43;;;;;;;;;20.00;19.00;;;;;10.96;75.69;99819.94;5116334;28;8832;-85
2023/04/29 06:08:12;;;;;;;;;4.50;3.75;;;;;10.99;75.59;99825.03;5114937;28;8916;-85
2023/04/29 06:10:40;;;;;;;;;24.25;22.00;;;;;11.02;75.52;99822.97;5114809;28;8921;-86
2023/04/29 06:13:07;;;;;;;;;19.50;17.75;;;;;11.05;75.61;99829.81;5115206;28;9547;-85
2023/04/29 06:15:35;;;;;;;;;14.50;11.75;;;;;11.06;75.86;99826.22;5116964;28;8868;-86
2023/04/29 06:18:03;;;;;;;;;15.75;12.75;;;;;11.07;75.55;99841.22;5119090;28;8909;-86
2023/04/29 06:20:31;;;;;;;;;19.75;17.50;;;;;11.07;75.12;99828.72;5117319;28;8864;-85
2023/04/29 06:22:59;;;;;;;;;18.75;17.50;;;;;11.10;75.69;99841.81;5118087;28;8839;-85
2023/04/29 06:25:27;;;;;;;;;23.75;20.25;;;;;11.12;75.38;99831.88;5120768;28;8819;-85
2023/04/29 06:27:55;;;;;;;;;20.00;15.75;;;;;11.16;75.51;99843.94;5122647;28;8828;-85
2023/04/29 06:30:23;;;;;;;;;13.50;12.75;;;;;11.22;75.38;99848.75;5122117;28;8850;-85
2023/04/29 06:32:50;;;;;;;;;18.75;17.00;;;;;11.29;74.98;99847.28;5122811;28;8832;-85
2023/04/29 06:35:18;;;;;;;;;26.00;19.75;;;;;11.35;75.29;99849.44;5124163;28;8846;-85
2023/04/29 06:37:46;;;;;;;;;23.00;20.00;;;;;11.39;74.69;99853.50;5123796;28;8820;-85
2023/04/29 06:40:14;;;;;;;;;21.25;17.00;;;;;11.44;74.89;99851.31;5123498;28;8820;-85
2023/04/29 06:42:42;;;;;;;;;18.00;15.50;;;;;11.47;74.91;99853.75;5123236;28;8878;-85
2023/04/29 06:45:10;;;;;;;;;19.50;15.75;;;;;11.49;74.85;99857.13;5124609;28;8928;-85
2023/04/29 06:47:38;;;;;;;;;15.75;14.75;;;;;11.50;74.39;99861.47;5125455;28;9562;-85
2023/04/29 06:50:05;;;;;;;;;19.75;16.00;;;;;11.52;74.81;99866.69;5125183;28;8816;-85
2023/04/29 06:52:33;;;;;;;;;23.75;21.00;;;;;11.52;74.84;99870.19;5125172;28;8863;-85
2023/04/29 06:55:01;;;;;;;;;17.00;12.25;;;;;11.51;74.96;99873.00;5125009;28;8882;-85
2023/04/29 06:57:28;;;;;;;;;11.75;9.00;;;;;11.51;74.65;99881.00;5124652;28;8924;-85
2023/04/29 06:59:56;;;;;;;;;22.50;20.50;;;;;11.51;74.84;99884.50;5124791;28;8942;-85
2023/04/29 07:02:24;;;;;;;;;17.50;14.50;;;;;11.51;75.14;99884.50;5121159;28;8844;-85
2023/04/29 07:04:53;;;;;;;;;17.00;15.00;;;;;11.51;74.74;99886.34;5121163;28;8843;-86
2023/04/29 07:07:21;;;;;;;;;21.75;18.50;;;;;11.51;74.82;99881.81;5119018;28;9037;-86
2023/04/29 07:09:50;;;;;;;;;11.50;11.00;;;;;11.50;75.47;99892.63;5116409;28;8827;-85
2023/04/29 07:12:18;;;;;;;;;21.25;18.00;;;;;11.48;75.04;99900.75;5116294;28;8851;-85
2023/04/29 07:14:47;;;;;;;;;26.75;22.25;;;;;11.46;75.25;99904.53;5116400;28;8835;-85
2023/04/29 07:17:14;;;;;;;;;19.50;18.50;;;;;11.42;75.58;99911.94;5116280;28;8848;-85
2023/04/29 07:19:42;;;;;;;;;23.00;21.25;;;;;11.41;75.15;99914.72;5114996;28;8858;-85
2023/04/29 07:22:09;;;;;;;;;20.25;16.50;;;;;11.37;75.79;99916.78;5114854;28;8835;-85
2023/04/29 07:24:37;;;;;;;;;21.50;19.00;;;;;11.34;75.73;99916.19;5113342;28;8856;-85
2023/04/29 07:27:05;;;;;;;;;18.50;18.50;;;;;11.32;75.73;99929.69;5110938;28;8856;-86
2023/04/29 07:29:33;;;;;;;;;16.00;12.50;;;;;11.32;75.46;99926.16;5110396;28;9002;-86
2023/04/29 07:32:01;;;;;;;;;19.50;17.50;;;;;11.30;75.58;99934.28;5113130;28;8832;-86
2023/04/29 07:34:28;;;;;;;;;14.00;12.25;;;;;11.23;75.78;99935.75;5117072;28;9025;-85
2023/04/29 07:36:56;;;;;;;;;21.50;18.00;;;;;11.18;75.86;99945.97;5117277;28;8827;-85
2023/04/29 07:39:24;;;;;;;;;17.50;15.75;;;;;11.17;76.23;99946.06;5118544;28;8896;-85
2023/04/29 07:41:52;;;;;;;;;14.00;12.50;;;;;11.15;76.43;99948.84;5118879;28;9653;-86
2023/04/29 07:44:20;;;;;;;;;25.00;21.50;;;;;11.14;76.05;99947.16;5118702;28;8970;-86
2023/04/29 07:46:48;;;;;;;;;22.00;19.00;;;;;11.11;75.98;99947.44;5116796;28;8860;-86
2023/04/29 07:49:16;;;;;;;;;21.00;19.00;;;;;11.11;76.55;99957.22;5116642;28;8835;-86
2023/04/29 07:51:45;;;;;;;;;19.50;18.50;;;;;11.09;76.78;99970.69;5115719;28;8972;-86
2023/04/29 07:54:13;;;;;;;;;19.00;18.00;;;;;11.07;76.51;99972.63;5115405;28;8860;-86
2023/04/29 07:56:40;;;;;;;;;20.00;17.00;;;;;11.07;76.31;99974.47;5115050;28;8871;-85
2023/04/29 07:59:08;;;;;;;;;20.50;18.00;;;;;11.07;76.49;99977.94;5114533;28;8844;-85
2023/04/29 08:01:36;;;;;;;;;17.50;16.50;;;;;11.07;76.32;99977.94;5114840;28;8859;-86
2023/04/29 08:04:04;;;;;;;;;19.00;15.50;;;;;11.07;76.45;99985.94;5116457;28;8839;-86
2023/04/29 08:06:32;;;;;;;;;17.75;15.25;;;;;11.06;76.63;99986.91;5116346;28;8850;-86
2023/04/29 08:09:00;;;;;;;;;16.00;14.75;;;;;11.08;76.45;100000.13;5117003;28;8958;-86
2023/04/29 08:11:29;;;;;;;;;12.75;11.50;;;;;11.11;76.64;99995.41;5116397;28;8850;-86
2023/04/29 08:13:58;;;;;;;;;13.25;7.75;;;;;11.09;76.64;99992.00;5117624;28;8836;-86
2023/04/29 08:16:26;;;;;;;;;18.50;15.50;;;;;11.08;76.32;100000.13;5117557;28;8847;-88
2023/04/29 08:18:55;;;;;;;;;23.50;21.25;;;;;11.05;76.65;100000.38;5117972;28;9506;-86
2023/04/29 08:21:22;;;;;;;;;21.50;17.75;;;;;11.02;76.71;100001.47;5121764;28;8862;-85
2023/04/29 08:23:50;;;;;;;;;19.25;14.50;;;;;11.05;76.33;99998.56;5124488;28;8844;-85
2023/04/29 08:26:18;;;;;;;;;22.00;16.50;;;;;11.07;76.57;100004.59;5118015;28;8948;-85
2023/04/29 08:28:46;;;;;;;;;27.25;24.00;;;;;11.10;76.38;100003.50;5118596;28;8846;-85
2023/04/29 08:31:14;;;;;;;;;17.25;16.00;;;;;11.10;76.83;100016.84;5117530;28;8850;-85
2023/04/29 08:33:42;;;;;;;;;22.00;20.75;;;;;11.09;76.76;100007.97;5117270;28;9510;-85
2023/04/29 08:36:10;;;;;;;;;22.50;20.75;;;;;11.12;76.71;100013.09;5117266;28;8848;-85
2023/04/29 08:38:38;;;;;;;;;22.75;19.25;;;;;11.14;76.73;100013.81;5117561;28;8883;-85
2023/04/29 08:41:07;;;;;;;;;17.00;14.25;;;;;11.16;76.88;100016.34;5118523;28;8835;-85
2023/04/29 08:43:35;;;;;;;;;23.50;18.75;;;;;11.19;76.28;100016.09;5117299;28;8856;-85
2023/04/29 08:46:03;;;;;;;;;25.00;21.75;;;;;11.19;76.93;100018.75;5117517;28;8859;-85
2023/04/29 08:48:31;;;;;;;;;26.50;24.50;;;;;11.20;76.69;100029.31;5117746;28;8835;-85
2023/04/29 08:51:01;;;;;;;;;29.00;23.50;;;;;11.21;76.14;100039.00;5116737;28;8836;-85
2023/04/29 08:53:29;;;;;;;;;24.75;22.00;;;;;11.21;76.32;100036.31;5116738;28;8843;-84
2023/04/29 08:55:57;;;;;;;;;31.50;26.50;;;;;11.26;76.79;100035.94;5116196;28;8928;-85
2023/04/29 08:58:25;;;;;;;;;35.00;28.00;;;;;11.25;76.53;100028.94;5117019;28;8836;-85
2023/04/29 09:00:53;;;;;;;;;38.25;30.75;;;;;11.26;76.48;100041.28;5115512;28;8835;-85
2023/04/29 09:03:21;;;;;;;;;33.25;25.50;;;;;11.23;76.72;100036.22;5115603;28;8840;-85
2023/04/29 09:05:49;;;;;;;;;29.00;24.75;;;;;11.22;77.00;100046.00;5116086;28;8832;-85
2023/04/29 09:08:17;;;;;;;;;38.75;31.00;;;;;11.21;76.84;100044.31;5115744;28;8924;-85
2023/04/29 09:10:45;;;;;;;;;36.75;28.50;;;;;11.21;76.82;100048.81;5115791;28;8900;-85
2023/04/29 09:13:13;;;;;;;;;21.00;20.00;;;;;11.25;76.70;100044.91;5115242;28;9513;-85
2023/04/29 09:15:41;;;;;;;;;29.25;25.25;;;;;11.25;77.25;100056.44;5115596;28;8870;-85
2023/04/29 09:18:09;;;;;;;;;26.25;25.00;;;;;11.27;77.17;100050.97;5115403;28;8836;-85
2023/04/29 09:20:37;;;;;;;;;35.80;29.80;;;;;11.28;77.09;100048.19;5115095;28;8823;-85
2023/04/29 09:23:05;;;;;;;;;28.00;25.00;;;;;11.29;76.75;100057.88;5116372;28;8909;-85
2023/04/29 09:25:33;;;;;;;;;35.50;30.00;;;;;11.34;77.26;100062.84;5115836;28;8848;-85
2023/04/29 09:28:01;;;;;;;;;36.25;28.00;;;;;11.36;77.46;100068.91;5116185;28;8839;-85
2023/04/29 09:30:30;;;;;;;;;31.00;27.00;;;;;11.37;77.19;100063.44;5116937;28;8839;-85
2023/04/29 09:32:57;;;;;;;;;28.50;27.00;;;;;11.37;76.80;100063.44;5116670;28;8846;-85
2023/04/29 09:35:25;;;;;;;;;25.00;19.25;;;;;11.40;77.21;100073.88;5115210;28;8928;-85
2023/04/29 09:37:53;;;;;;;;;25.00;22.25;;;;;11.43;76.71;100062.09;5115988;28;8832;-85
2023/04/29 09:40:21;;;;;;;;;33.25;28.50;;;;;11.44;76.40;100077.97;5115353;28;8840;-85
2023/04/29 09:42:50;;;;;;;;;28.75;26.00;;;;;11.49;76.86;100085.59;5115885;28;8970;-85
2023/04/29 09:45:18;;;;;;;;;27.50;22.75;;;;;11.51;76.49;100084.50;5116534;28;8866;-85
2023/04/29 09:47:46;;;;;;;;;33.00;30.00;;;;;11.53;76.68;100087.88;5116512;28;8982;-85
2023/04/29 09:50:15;;;;;;;;;30.75;21.25;;;;;11.55;76.69;100082.44;5116111;28;8850;-85
2023/04/29 09:52:43;;;;;;;;;36.25;29.25;;;;;11.55;76.31;100083.28;5116429;28;9520;-85
2023/04/29 09:55:14;;;;;;;;;20.50;17.50;;;;;11.54;76.61;100092.25;5115382;28;8827;-85
2023/04/29 09:57:42;;;;;;;;;29.25;28.25;;;;;11.56;76.76;100087.66;5115398;28;9229;-85
2023/04/29 10:00:12;;;;;;;;;28.00;23.25;;;;;11.58;76.50;100087.53;5114562;28;8908;-85
2023/04/29 10:02:40;;;;;;;;;26.00;23.00;;;;;11.65;76.50;100097.59;5113829;28;8859;-85
2023/04/29 10:05:08;;;;;;;;;35.00;31.50;;;;;11.80;76.56;100088.34;5113292;28;8855;-85
2023/04/29 10:07:37;;;;;;;;;29.50;26.50;;;;;12.07;76.22;100094.06;5113162;28;8860;-85
2023/04/29 10:10:05;;;;;;;;;30.00;24.75;;;;;12.40;74.99;100085.88;5114039;28;8932;-85
2023/04/29 10:12:33;;;;;;;;;25.00;24.25;;;;;12.77;74.02;100084.44;5114970;28;8832;-85
2023/04/29 10:15:00;;;;;;;;;20.75;16.25;;;;;13.07;73.83;100087.16;5113775;28;8852;-85
2023/04/29 10:17:28;;;;;;;;;23.50;22.00;;;;;13.32;72.89;100087.53;5113038;28;8847;-86
2023/04/29 10:19:57;;;;;;;;;27.25;25.50;;;;;13.50;72.46;100087.72;5114267;28;8844;-85
2023/04/29 10:22:25;;;;;;;;;23.75;22.50;;;;;13.66;72.49;100096.09;5114984;28;9498;-85
2023/04/29 10:24:53;;;;;;;;;29.50;24.75;;;;;13.73;72.39;100092.69;5125774;28;8924;-85
2023/04/29 10:27:21;;;;;;;;;19.75;18.00;;;;;13.82;72.39;100102.56;5124288;28;8855;-85
2023/04/29 10:29:51;;;;;;;;;29.50;23.50;;;;;14.03;71.85;100094.44;5113935;28;8915;-85
2023/04/29 10:32:20;;;;;;;;;21.75;19.00;;;;;14.23;71.10;100090.78;5114326;28;8953;-85
2023/04/29 10:34:48;;;;;;;;;28.25;25.75;;;;;14.34;71.46;100088.81;5115654;28;9221;-85
2023/04/29 10:37:16;;;;;;;;;30.00;27.00;;;;;14.32;71.04;100084.59;5117663;28;8832;-85
2023/04/29 10:39:44;;;;;;;;;25.00;19.25;;;;;14.22;71.20;100086.44;5117795;28;8916;-88
2023/04/29 10:42:12;;;;;;;;;21.50;21.00;;;;;14.12;71.83;100089.06;5116395;28;8874;-88
2023/04/29 10:44:40;;;;;;;;;29.00;26.00;;;;;14.14;72.25;100097.84;5115540;28;8859;-85
2023/04/29 10:47:08;;;;;;;;;24.75;20.50;;;;;14.23;71.93;100097.03;5113364;28;8843;-85
2023/04/29 10:49:36;;;;;;;;;24.25;22.50;;;;;14.36;71.52;100091.38;5113893;28;8880;-85
2023/04/29 10:52:04;;;;;;;;;25.00;23.00;;;;;14.51;70.86;100095.31;5114348;28;8851;-85
2023/04/29 10:54:32;;;;;;;;;23.75;18.75;;;;;14.69;70.95;100104.28;5114100;28;8816;-85
2023/04/29 10:57:01;;;;;;;;;33.00;27.00;;;;;14.79;70.92;100095.25;5114439;28;8859;-85
2023/04/29 10:59:28;;;;;;;;;36.25;26.25;;;;;14.79;70.71;100094.41;5114837;28;8933;-85
2023/04/29 11:01:56;;;;;;;;;31.25;27.25;;;;;14.77;70.47;100097.22;5113716;28;9497;-85
2023/04/29 11:04:24;;;;;;;;;31.25;29.25;;;;;14.82;71.04;100100.31;5112848;28;8881;-86
2023/04/29 11:06:52;;;;;;;;;23.00;21.25;;;;;14.89;71.00;100100.59;5116437;28;8843;-86
2023/04/29 11:09:22;;;;;;;;;28.75;24.75;;;;;14.94;70.60;100101.00;5116734;28;8869;-86
2023/04/29 11:11:52;;;;;;;;;16.50;14.00;;;;;14.99;70.12;100102.25;5116839;28;8844;-85
2023/04/29 11:14:20;;;;;;;;;26.00;24.00;;;;;15.10;70.05;100104.75;5116418;28;8872;-85
2023/04/29 11:16:49;;;;;;;;;25.00;24.50;;;;;15.27;70.18;100100.44;5116510;28;8858;-86
2023/04/29 11:19:17;;;;;;;;;25.00;22.00;;;;;15.42;69.25;100099.00;5117057;28;8873;-85
2023/04/29 11:21:46;;;;;;;;;25.00;25.00;;;;;15.51;69.15;100098.97;5115461;28;8828;-85
2023/04/29 11:24:16;;;;;;;;;26.25;24.50;;;;;15.53;69.41;100098.78;5115770;28;8933;-86
2023/04/29 11:26:45;;;;;;;;;24.25;20.00;;;;;15.47;69.33;100102.09;5114038;28;8863;-86